Time;durP1;ratioP1;P1;durP2;ratioP2;P2;SDS_P1;SDS_P2;PMS_P1;PMS_P2;Temp;Humidity;BMP_temperature;BMP_pressure;BME280_temperature;BME280_humidity;BME280_pressure;Samples;Min_cycle;Max_cycle;Signal;HPM_P1;HPM_P2
2021/10/13 00:00:50;;;;;;;7.95;4.05;;;9.10;99.90;;;;;;5052894;28;20186;-89
2021/10/13 00:03:16;;;;;;;7.55;4.88;;;9.40;99.90;;;;;;5054933;28;20285;-90
2021/10/13 00:05:41;;;;;;;7.30;4.82;;;9.30;99.90;;;;;;5054452;28;20167;-82
2021/10/13 00:08:07;;;;;;;8.90;4.25;;;9.30;99.90;;;;;;5053847;28;20305;-93
2021/10/13 00:10:33;;;;;;;5.95;4.72;;;9.30;99.90;;;;;;5053792;28;20167;-78
2021/10/13 00:12:58;;;;;;;8.90;5.10;;;9.20;99.90;;;;;;5053353;28;20175;-90
2021/10/13 00:15:24;;;;;;;8.35;4.75;;;9.30;99.90;;;;;;5053541;28;20161;-89
2021/10/13 00:17:50;;;;;;;7.55;4.50;;;9.40;99.90;;;;;;5053327;28;20556;-89
2021/10/13 00:20:15;;;;;;;6.88;4.78;;;9.20;99.90;;;;;;5053382;28;20505;-87
2021/10/13 00:22:41;;;;;;;6.32;4.43;;;9.20;99.90;;;;;;5053691;28;20167;-89
2021/10/13 00:25:07;;;;;;;7.57;4.25;;;9.00;99.90;;;;;;5053845;28;20171;-83
2021/10/13 00:27:33;;;;;;;12.18;4.78;;;8.80;99.90;;;;;;5053731;28;20714;-87
2021/10/13 00:29:58;;;;;;;7.13;4.60;;;8.80;99.90;;;;;;5053679;28;20313;-92
2021/10/13 00:32:24;;;;;;;4.65;4.18;;;8.80;99.90;;;;;;5053948;28;20155;-81
2021/10/13 00:34:50;;;;;;;8.25;4.68;;;8.80;99.90;;;;;;5054946;28;20175;-84
2021/10/13 00:37:16;;;;;;;12.88;4.40;;;8.80;99.90;;;;;;5053551;28;20746;-91
2021/10/13 00:39:41;;;;;;;10.77;4.18;;;9.00;99.90;;;;;;5053488;28;20159;-81
2021/10/13 00:42:07;;;;;;;4.63;4.22;;;9.10;99.90;;;;;;5052902;28;20201;-82
2021/10/13 00:44:32;;;;;;;9.82;4.95;;;9.30;99.90;;;;;;5053461;28;20262;-82
2021/10/13 00:47:00;;;;;;;6.38;4.40;;;9.40;99.90;;;;;;5052920;28;20325;-85
2021/10/13 00:49:26;;;;;;;4.32;3.92;;;9.30;99.90;;;;;;5052810;28;20159;-89
2021/10/13 00:51:52;;;;;;;4.45;4.00;;;9.40;99.90;;;;;;5052686;28;20191;-78
2021/10/13 00:54:19;;;;;;;8.75;5.45;;;9.30;99.90;;;;;;5051824;28;20174;-89
2021/10/13 00:56:44;;;;;;;12.18;4.30;;;9.50;99.90;;;;;;5051586;28;20167;-89
2021/10/13 00:59:10;;;;;;;8.52;4.40;;;9.40;99.90;;;;;;5052866;28;20164;-87
2021/10/13 01:01:44;;;;;;;6.63;5.00;;;9.70;99.90;;;;;;5053865;28;20529;-92
2021/10/13 01:04:29;;;;;;;8.93;4.28;;;9.70;99.90;;;;;;5053313;28;20155;-93
2021/10/13 01:07:16;;;;;;;9.05;4.28;;;9.70;99.90;;;;;;5053499;28;20238;-88
2021/10/13 01:09:50;;;;;;;8.95;4.85;;;9.40;99.90;;;;;;5053075;28;20167;-91
2021/10/13 01:12:54;;;;;;;6.40;4.72;;;9.20;99.90;;;;;;5053339;28;20615;-85
2021/10/13 01:15:36;;;;;;;11.95;5.20;;;9.00;99.90;;;;;;5050877;28;20237;-77
2021/10/13 01:18:24;;;;;;;4.38;3.97;;;8.70;99.90;;;;;;5052710;28;20187;-92
2021/10/13 01:20:59;;;;;;;7.93;3.90;;;8.70;99.90;;;;;;5052140;28;20225;-77
2021/10/13 01:23:56;;;;;;;5.90;4.38;;;8.70;99.90;;;;;;5052055;28;20216;-77
2021/10/13 01:26:45;;;;;;;6.63;4.75;;;8.80;99.90;;;;;;5052464;28;20207;-77
2021/10/13 01:29:15;;;;;;;7.80;4.38;;;9.00;99.90;;;;;;5050807;28;20631;-93
2021/10/13 01:31:47;;;;;;;6.85;4.57;;;9.00;99.90;;;;;;5053026;28;20186;-84
2021/10/13 01:34:22;;;;;;;10.27;5.03;;;9.00;99.90;;;;;;5056570;28;20691;-92
2021/10/13 01:36:57;;;;;;;6.95;4.57;;;9.00;99.90;;;;;;5056991;28;20655;-89
2021/10/13 01:39:25;;;;;;;6.38;5.22;;;9.00;99.90;;;;;;5056045;28;20205;-77
2021/10/13 01:41:52;;;;;;;8.65;3.83;;;8.90;99.90;;;;;;5056589;28;20163;-90
2021/10/13 01:44:19;;;;;;;8.05;4.80;;;8.90;99.90;;;;;;5056312;28;20169;-91
2021/10/13 01:46:45;;;;;;;5.78;4.47;;;8.80;99.90;;;;;;5056255;28;20207;-85
2021/10/13 01:49:12;;;;;;;6.15;5.38;;;8.80;99.90;;;;;;5055181;28;20257;-78
2021/10/13 01:51:40;;;;;;;11.30;5.00;;;8.90;99.90;;;;;;5056354;28;20194;-92
2021/10/13 01:54:06;;;;;;;8.77;4.30;;;9.10;99.90;;;;;;5055624;28;20167;-90
2021/10/13 01:56:32;;;;;;;4.82;4.38;;;9.10;99.90;;;;;;5056597;28;20258;-92
2021/10/13 01:59:06;;;;;;;4.90;4.50;;;9.20;99.90;;;;;;5055164;28;20577;-80
2021/10/13 02:01:34;;;;;;;6.03;4.60;;;9.20;99.90;;;;;;5056408;28;20651;-87
2021/10/13 02:04:07;;;;;;;5.45;4.45;;;9.00;99.90;;;;;;5055856;28;20163;-78
2021/10/13 02:06:34;;;;;;;9.77;4.30;;;8.70;99.90;;;;;;5055706;28;20199;-91
2021/10/13 02:09:01;;;;;;;5.45;4.88;;;8.70;99.90;;;;;;5056710;28;20539;-92
2021/10/13 02:11:29;;;;;;;9.30;5.28;;;8.80;99.90;;;;;;5055876;28;20246;-87
2021/10/13 02:13:59;;;;;;;5.82;4.97;;;8.90;99.90;;;;;;5055611;28;20171;-92
2021/10/13 02:16:27;;;;;;;8.25;5.28;;;8.90;99.90;;;;;;5055744;28;20159;-77
2021/10/13 02:18:55;;;;;;;9.90;5.05;;;9.00;99.90;;;;;;5055142;28;20190;-87
2021/10/13 02:21:24;;;;;;;9.23;4.85;;;9.00;99.90;;;;;;5055831;28;20151;-79
2021/10/13 02:23:52;;;;;;;5.93;5.15;;;8.90;99.90;;;;;;5056083;28;20171;-82
2021/10/13 02:26:26;;;;;;;7.38;5.75;;;8.80;99.90;;;;;;5055605;28;20347;-78
2021/10/13 02:28:57;;;;;;;16.38;5.03;;;9.10;99.90;;;;;;5054619;28;20183;-78
2021/10/13 02:31:24;;;;;;;10.75;5.53;;;9.10;99.90;;;;;;5055776;28;20182;-92
2021/10/13 02:33:49;;;;;;;7.22;5.70;;;9.50;99.90;;;;;;5056018;28;20171;-86
2021/10/13 02:36:15;;;;;;;11.32;5.82;;;9.40;99.90;;;;;;5055742;28;20171;-84
2021/10/13 02:38:41;;;;;;;10.30;5.30;;;9.40;99.90;;;;;;5055813;28;20210;-90
2021/10/13 02:41:06;;;;;;;7.70;5.10;;;9.20;99.90;;;;;;5055441;28;20258;-79
2021/10/13 02:43:32;;;;;;;13.50;6.00;;;9.30;99.90;;;;;;5055387;28;20199;-93
2021/10/13 02:46:11;;;;;;;10.05;5.97;;;9.10;99.90;;;;;;5055515;28;20167;-92
2021/10/13 02:48:41;;;;;;;10.80;5.25;;;9.20;99.90;;;;;;5054742;28;20249;-78
2021/10/13 02:51:10;;;;;;;6.30;5.38;;;9.00;99.90;;;;;;5054617;28;20628;-79
2021/10/13 02:53:46;;;;;;;11.68;5.88;;;9.20;99.90;;;;;;5055078;28;20168;-81
2021/10/13 02:56:19;;;;;;;7.50;5.43;;;9.20;99.90;;;;;;5054525;28;20182;-78
2021/10/13 02:58:51;;;;;;;16.25;5.72;;;9.30;99.90;;;;;;5054634;28;20180;-88
2021/10/13 03:01:19;;;;;;;7.03;5.45;;;9.40;99.90;;;;;;5055763;28;20171;-78
2021/10/13 03:03:53;;;;;;;8.07;5.15;;;9.60;99.90;;;;;;5056575;28;20254;-84
2021/10/13 03:06:21;;;;;;;9.85;5.35;;;9.80;99.90;;;;;;5056219;28;20171;-93
2021/10/13 03:08:49;;;;;;;4.60;4.03;;;9.80;99.90;;;;;;5055404;28;20198;-91
2021/10/13 03:11:18;;;;;;;7.22;4.97;;;9.60;99.90;;;;;;5057753;28;20159;-94
2021/10/13 03:13:47;;;;;;;10.23;5.40;;;9.50;99.90;;;;;;5056185;28;20195;-86
2021/10/13 03:16:14;;;;;;;7.55;4.68;;;9.50;99.90;;;;;;5057900;28;20654;-78
2021/10/13 03:18:41;;;;;;;5.68;4.55;;;9.50;99.90;;;;;;5054422;28;20187;-80
2021/10/13 03:21:08;;;;;;;5.55;5.05;;;9.50;99.90;;;;;;5054530;28;20176;-78
2021/10/13 03:23:34;;;;;;;11.13;5.07;;;9.60;99.90;;;;;;5055658;28;20170;-84
2021/10/13 03:26:07;;;;;;;8.38;5.22;;;9.70;99.90;;;;;;5054068;28;20565;-77
2021/10/13 03:28:34;;;;;;;11.48;5.15;;;9.80;99.90;;;;;;5053583;28;20736;-77
2021/10/13 03:31:00;;;;;;;5.93;5.22;;;9.90;99.90;;;;;;5053867;28;20179;-77
2021/10/13 03:33:25;;;;;;;9.85;5.45;;;9.80;99.90;;;;;;5056997;28;20186;-91
2021/10/13 03:35:51;;;;;;;11.88;5.25;;;9.50;99.90;;;;;;5039816;28;20278;-93
2021/10/13 03:38:17;;;;;;;7.65;5.32;;;9.80;99.90;;;;;;5055395;28;20187;-79
2021/10/13 03:40:42;;;;;;;8.63;5.30;;;9.90;99.90;;;;;;5054122;28;20182;-77
2021/10/13 03:43:11;;;;;;;6.35;5.07;;;10.00;99.90;;;;;;5052931;28;20654;-77
2021/10/13 03:45:37;;;;;;;10.75;4.70;;;10.20;99.90;;;;;;5054237;28;20696;-90
2021/10/13 03:48:03;;;;;;;11.02;4.82;;;10.10;99.90;;;;;;5054669;28;20215;-91
2021/10/13 03:50:28;;;;;;;6.28;5.65;;;10.10;99.90;;;;;;5053555;28;20159;-78
2021/10/13 03:52:55;;;;;;;9.75;4.97;;;10.20;99.90;;;;;;5053944;28;20167;-92
2021/10/13 03:55:21;;;;;;;5.43;4.97;;;10.20;99.90;;;;;;5053118;28;20167;-90
2021/10/13 03:57:48;;;;;;;11.25;5.80;;;10.10;99.90;;;;;;5053919;28;20643;-84
2021/10/13 04:00:17;;;;;;;19.42;5.75;;;10.20;99.90;;;;;;5054225;28;20167;-86
2021/10/13 04:02:43;;;;;;;13.18;5.47;;;10.20;99.90;;;;;;5054012;28;20175;-92
2021/10/13 04:05:11;;;;;;;7.85;5.53;;;10.10;99.90;;;;;;5055375;28;20187;-86
2021/10/13 04:07:37;;;;;;;10.65;5.05;;;10.10;99.90;;;;;;5056479;28;20210;-82
2021/10/13 04:10:09;;;;;;;8.90;5.25;;;10.00;99.90;;;;;;5052968;28;20168;-77
2021/10/13 04:12:36;;;;;;;6.55;4.95;;;10.00;99.90;;;;;;5052848;28;20194;-78
2021/10/13 04:15:06;;;;;;;13.40;5.85;;;10.10;99.90;;;;;;5053090;28;20257;-78
2021/10/13 04:17:33;;;;;;;8.35;5.00;;;10.20;99.90;;;;;;5052754;28;20195;-78
2021/10/13 04:20:01;;;;;;;12.15;5.18;;;10.10;99.90;;;;;;5052924;28;20199;-77
2021/10/13 04:22:26;;;;;;;5.70;4.15;;;10.20;99.90;;;;;;5052734;28;20163;-83
2021/10/13 04:24:52;;;;;;;14.38;5.18;;;10.00;99.90;;;;;;5052916;28;20581;-77
2021/10/13 04:27:18;;;;;;;9.55;4.78;;;10.00;99.90;;;;;;5052574;28;20215;-78
2021/10/13 04:29:43;;;;;;;6.93;4.25;;;10.10;99.90;;;;;;5053409;28;20262;-81
2021/10/13 04:32:09;;;;;;;5.97;4.68;;;10.30;99.90;;;;;;5053730;28;20250;-91
2021/10/13 04:34:35;;;;;;;15.27;6.00;;;10.40;99.90;;;;;;5053883;28;20541;-88
2021/10/13 04:37:00;;;;;;;12.85;4.28;;;10.60;99.90;;;;;;5053960;28;20651;-91
2021/10/13 04:39:26;;;;;;;7.32;4.68;;;10.70;99.90;;;;;;5053936;28;20170;-92
2021/10/13 04:41:51;;;;;;;5.93;4.32;;;10.70;99.90;;;;;;5053451;28;20175;-83
2021/10/13 04:44:17;;;;;;;16.08;5.97;;;10.70;99.90;;;;;;5052450;28;20163;-78
2021/10/13 04:46:42;;;;;;;9.48;5.47;;;10.60;99.90;;;;;;5052560;28;20317;-77
2021/10/13 04:49:08;;;;;;;9.90;5.28;;;10.60;99.90;;;;;;5052451;28;20171;-78
2021/10/13 04:51:34;;;;;;;9.93;5.28;;;10.80;99.90;;;;;;5052261;28;20845;-78
2021/10/13 04:53:59;;;;;;;7.43;4.35;;;10.80;99.90;;;;;;5052314;28;20167;-77
2021/10/13 04:56:25;;;;;;;4.88;4.15;;;10.90;99.90;;;;;;5052631;28;20167;-78
2021/10/13 04:58:51;;;;;;;11.15;4.32;;;10.80;99.90;;;;;;5051911;28;20199;-77
2021/10/13 05:01:16;;;;;;;11.77;4.85;;;10.60;99.90;;;;;;5052873;28;20170;-77
2021/10/13 05:03:42;;;;;;;12.55;5.65;;;10.70;99.90;;;;;;5051879;28;20250;-78
2021/10/13 05:06:07;;;;;;;9.80;4.72;;;10.60;99.90;;;;;;5051740;28;20168;-77
2021/10/13 05:08:33;;;;;;;10.63;5.28;;;10.70;99.90;;;;;;5054880;28;20785;-78
2021/10/13 05:10:59;;;;;;;6.60;4.63;;;10.50;99.90;;;;;;5055956;28;20237;-78
2021/10/13 05:13:25;;;;;;;14.07;5.47;;;10.30;99.90;;;;;;5056466;28;20536;-80
2021/10/13 05:15:50;;;;;;;7.00;4.45;;;10.20;99.90;;;;;;5056471;28;20171;-77
2021/10/13 05:18:16;;;;;;;8.73;5.88;;;10.50;99.90;;;;;;5055934;28;20237;-78
2021/10/13 05:20:41;;;;;;;6.93;5.00;;;10.30;99.90;;;;;;5055896;28;20178;-77
2021/10/13 05:23:07;;;;;;;9.30;4.75;;;10.50;99.90;;;;;;5057116;28;20167;-78
2021/10/13 05:25:33;;;;;;;7.40;4.95;;;10.40;99.90;;;;;;5056207;28;20562;-77
2021/10/13 05:27:59;;;;;;;12.40;5.60;;;10.50;99.90;;;;;;5055693;28;20253;-77
2021/10/13 05:30:25;;;;;;;14.70;5.43;;;10.30;99.90;;;;;;5059904;28;20220;-88
2021/10/13 05:32:50;;;;;;;9.00;5.70;;;10.30;99.90;;;;;;5061752;28;20167;-90
2021/10/13 05:35:16;;;;;;;7.05;5.18;;;10.30;99.90;;;;;;5060948;28;20183;-87
2021/10/13 05:37:42;;;;;;;13.18;5.40;;;10.40;99.90;;;;;;5059955;28;20222;-80
2021/10/13 05:40:08;;;;;;;15.63;5.53;;;10.50;99.90;;;;;;5060744;28;20181;-88
2021/10/13 05:42:34;;;;;;;5.03;4.35;;;10.50;99.90;;;;;;5061513;28;20170;-94
2021/10/13 05:44:59;;;;;;;9.23;5.82;;;10.50;99.90;;;;;;5061756;28;20155;-84
2021/10/13 05:47:25;;;;;;;19.35;5.80;;;10.50;99.90;;;;;;5059520;28;20671;-80
2021/10/13 05:49:50;;;;;;;8.13;5.10;;;10.70;99.90;;;;;;5060535;28;20178;-78
2021/10/13 05:52:17;;;;;;;8.60;5.40;;;10.60;99.90;;;;;;5060825;28;20167;-87
2021/10/13 05:54:43;;;;;;;14.15;5.22;;;10.70;99.90;;;;;;5060856;28;20212;-87
2021/10/13 05:57:09;;;;;;;9.48;5.97;;;10.80;99.90;;;;;;5059153;28;20202;-91
2021/10/13 05:59:37;;;;;;;7.35;5.00;;;10.80;99.90;;;;;;5058681;28;20164;-79
2021/10/13 06:02:03;;;;;;;18.35;6.70;;;10.90;99.90;;;;;;5056975;28;20159;-86
2021/10/13 06:04:29;;;;;;;12.40;5.88;;;11.10;99.90;;;;;;5057359;28;20175;-79
2021/10/13 06:06:54;;;;;;;8.55;5.32;;;11.20;99.90;;;;;;5055097;28;20207;-78
2021/10/13 06:09:20;;;;;;;6.15;4.82;;;11.10;99.90;;;;;;5055176;28;20197;-77
2021/10/13 06:11:46;;;;;;;6.97;5.82;;;11.30;99.90;;;;;;5053961;28;20244;-77
2021/10/13 06:14:11;;;;;;;9.23;4.65;;;11.10;99.90;;;;;;5056145;28;20175;-87
2021/10/13 06:16:37;;;;;;;11.68;5.05;;;11.10;99.90;;;;;;5056502;28;20198;-78
2021/10/13 06:19:03;;;;;;;9.15;4.40;;;11.10;99.90;;;;;;5055620;28;20179;-78
2021/10/13 06:21:28;;;;;;;7.85;4.97;;;11.20;99.90;;;;;;5056450;28;20170;-78
2021/10/13 06:23:54;;;;;;;13.60;5.07;;;11.10;99.90;;;;;;5054553;28;20645;-78
2021/10/13 06:26:21;;;;;;;17.20;5.47;;;11.10;99.90;;;;;;5054110;28;20221;-77
2021/10/13 06:28:47;;;;;;;6.53;4.30;;;11.00;99.90;;;;;;5054731;28;20191;-77
2021/10/13 06:31:13;;;;;;;23.25;5.72;;;11.10;99.90;;;;;;5054614;28;20186;-78
2021/10/13 06:33:39;;;;;;;21.35;4.90;;;11.20;99.90;;;;;;5054151;28;20207;-77
2021/10/13 06:36:05;;;;;;;12.23;4.88;;;11.50;99.90;;;;;;5054139;28;20642;-78
2021/10/13 06:38:32;;;;;;;14.52;5.43;;;11.30;99.90;;;;;;5055374;28;20183;-77
2021/10/13 06:40:58;;;;;;;16.40;5.32;;;11.40;99.90;;;;;;5053845;28;20160;-77
2021/10/13 06:43:24;;;;;;;25.35;6.40;;;11.30;99.90;;;;;;5053581;28;20249;-77
2021/10/13 06:45:50;;;;;;;8.45;4.43;;;11.40;99.90;;;;;;5054355;28;20175;-78
2021/10/13 06:48:17;;;;;;;14.52;5.00;;;11.30;99.90;;;;;;5054088;28;20227;-77
2021/10/13 06:50:43;;;;;;;12.35;5.90;;;11.50;99.90;;;;;;5055863;28;20163;-82
2021/10/13 06:53:09;;;;;;;10.68;4.68;;;11.70;99.90;;;;;;5053948;28;20301;-77
2021/10/13 06:55:34;;;;;;;10.70;4.88;;;11.60;99.90;;;;;;5054225;28;20270;-78
2021/10/13 06:58:00;;;;;;;6.28;5.10;;;11.70;99.90;;;;;;5054062;28;20229;-78
2021/10/13 07:00:26;;;;;;;20.58;5.45;;;11.70;99.90;;;;;;5053948;28;20159;-77
2021/10/13 07:02:52;;;;;;;8.52;4.97;;;11.80;99.90;;;;;;5052803;28;20175;-77
2021/10/13 07:05:17;;;;;;;9.30;5.20;;;11.80;99.90;;;;;;5053855;28;20618;-77
2021/10/13 07:07:45;;;;;;;8.18;5.47;;;12.00;99.90;;;;;;5054483;28;20221;-78
2021/10/13 07:10:12;;;;;;;12.75;5.53;;;11.90;99.90;;;;;;5054042;28;20175;-77
2021/10/13 07:12:38;;;;;;;20.75;6.18;;;12.00;99.90;;;;;;5054112;28;20160;-77
2021/10/13 07:15:04;;;;;;;10.18;5.07;;;12.30;99.90;;;;;;5061064;28;20167;-78
2021/10/13 07:17:30;;;;;;;17.17;5.55;;;12.30;99.90;;;;;;5056382;28;20195;-77
2021/10/13 07:19:56;;;;;;;18.40;5.43;;;12.40;99.90;;;;;;5056763;28;20175;-77
2021/10/13 07:22:23;;;;;;;16.10;4.78;;;12.40;99.90;;;;;;5061602;28;20175;-77
2021/10/13 07:24:48;;;;;;;7.90;5.28;;;12.20;99.90;;;;;;5060412;28;20167;-78
2021/10/13 07:27:14;;;;;;;11.68;5.00;;;12.20;99.90;;;;;;5057949;28;20199;-79
2021/10/13 07:29:41;;;;;;;13.55;5.38;;;12.40;99.90;;;;;;5056189;28;20179;-81
2021/10/13 07:32:07;;;;;;;11.00;4.90;;;12.50;99.90;;;;;;5055672;28;20216;-79
2021/10/13 07:34:32;;;;;;;11.07;4.82;;;12.60;99.90;;;;;;5052256;28;20169;-77
2021/10/13 07:36:58;;;;;;;10.52;4.10;;;12.60;99.90;;;;;;5053694;28;20198;-78
2021/10/13 07:39:24;;;;;;;7.22;4.32;;;12.60;99.90;;;;;;5055918;28;20179;-77
2021/10/13 07:41:49;;;;;;;9.88;4.78;;;12.80;99.90;;;;;;5058795;28;20181;-78
2021/10/13 07:44:15;;;;;;;18.10;5.35;;;12.90;99.90;;;;;;5074475;28;20167;-78
2021/10/13 07:46:40;;;;;;;7.75;4.50;;;13.00;99.90;;;;;;5083420;28;20557;-78
2021/10/13 07:49:06;;;;;;;13.65;5.00;;;13.30;99.90;;;;;;5093436;28;20622;-78
2021/10/13 07:51:32;;;;;;;7.38;4.25;;;13.50;99.90;;;;;;5096201;28;20171;-82
2021/10/13 07:53:58;;;;;;;4.93;4.25;;;13.60;99.90;;;;;;5053898;28;20631;-78
2021/10/13 07:56:24;;;;;;;8.07;4.60;;;13.80;99.90;;;;;;5075362;28;20580;-78
2021/10/13 07:58:52;;;;;;;8.93;4.72;;;13.90;99.90;;;;;;5074411;28;20218;-78
2021/10/13 08:01:18;;;;;;;13.82;4.90;;;14.00;99.90;;;;;;5075836;28;20530;-78
2021/10/13 08:03:44;;;;;;;9.73;5.32;;;13.70;99.90;;;;;;5073444;28;20227;-78
2021/10/13 08:06:09;;;;;;;15.77;5.82;;;13.60;99.90;;;;;;5073831;28;20170;-78
2021/10/13 08:08:35;;;;;;;11.70;6.30;;;13.60;99.90;;;;;;5073823;28;20204;-77
2021/10/13 08:11:00;;;;;;;8.80;5.60;;;13.80;99.90;;;;;;5071988;28;20220;-83
2021/10/13 08:13:26;;;;;;;10.30;5.03;;;13.80;99.90;;;;;;5089829;28;20178;-83
2021/10/13 08:15:52;;;;;;;7.30;4.45;;;13.60;99.90;;;;;;5094059;28;20218;-88
2021/10/13 08:18:18;;;;;;;9.43;5.00;;;13.80;99.90;;;;;;5090830;28;20194;-85
2021/10/13 08:20:43;;;;;;;16.40;5.70;;;13.70;99.90;;;;;;5087693;28;20175;-89
2021/10/13 08:23:09;;;;;;;6.90;5.65;;;13.60;99.90;;;;;;5082026;28;20171;-92
2021/10/13 08:25:34;;;;;;;11.40;4.80;;;13.40;99.90;;;;;;5080618;28;20186;-90
2021/10/13 08:28:00;;;;;;;10.50;4.88;;;13.40;99.90;;;;;;5080073;28;20241;-93
2021/10/13 08:30:26;;;;;;;11.18;5.30;;;13.50;99.90;;;;;;5083433;28;20562;-94
2021/10/13 08:32:52;;;;;;;6.78;4.45;;;13.60;99.90;;;;;;5075034;28;20171;-78
2021/10/13 08:35:17;;;;;;;12.68;5.50;;;14.00;99.90;;;;;;5072331;28;20243;-76
2021/10/13 08:37:43;;;;;;;8.30;4.28;;;14.20;99.90;;;;;;5072084;28;20255;-77
2021/10/13 08:40:11;;;;;;;14.65;4.55;;;14.10;99.90;;;;;;5072528;28;20162;-78
2021/10/13 08:42:49;;;;;;;11.65;4.25;;;14.00;99.90;;;;;;5070818;28;20197;-77
2021/10/13 08:45:15;;;;;;;10.93;4.60;;;14.10;99.90;;;;;;5070878;28;20193;-78
2021/10/13 08:47:41;;;;;;;8.48;4.38;;;14.00;99.90;;;;;;5073718;28;20250;-94
2021/10/13 08:50:07;;;;;;;7.53;3.63;;;13.90;99.90;;;;;;5073055;28;20194;-78
2021/10/13 08:52:32;;;;;;;6.15;3.88;;;13.70;99.90;;;;;;5074633;28;20223;-90
2021/10/13 08:54:58;;;;;;;9.18;3.90;;;13.80;99.90;;;;;;5072846;28;20162;-77
2021/10/13 08:57:26;;;;;;;13.45;5.13;;;13.80;99.90;;;;;;5072806;28;20545;-81
2021/10/13 08:59:52;;;;;;;7.53;4.07;;;13.90;99.90;;;;;;5072246;28;20522;-80
2021/10/13 09:02:38;;;;;;;6.90;4.18;;;13.60;99.90;;;;;;5072880;28;20169;-79
2021/10/13 09:05:10;;;;;;;8.15;3.65;;;13.70;99.90;;;;;;5071853;28;20759;-77
2021/10/13 09:07:37;;;;;;;11.88;4.30;;;13.80;99.90;;;;;;5073784;28;20206;-83
2021/10/13 09:10:04;;;;;;;6.97;2.83;;;13.80;99.90;;;;;;5074849;28;20224;-78
2021/10/13 09:12:38;;;;;;;7.32;3.67;;;13.60;99.90;;;;;;5073860;28;20222;-78
2021/10/13 09:15:15;;;;;;;12.35;3.67;;;13.80;99.90;;;;;;5073285;28;20236;-82
2021/10/13 09:17:54;;;;;;;14.40;4.05;;;14.00;99.90;;;;;;5072387;28;20178;-78
2021/10/13 09:20:25;;;;;;;12.40;4.20;;;14.20;99.90;;;;;;5073518;28;20166;-78
2021/10/13 09:23:14;;;;;;;6.07;4.07;;;14.30;99.90;;;;;;5073732;28;20193;-80
2021/10/13 09:25:40;;;;;;;7.93;6.32;;;14.30;99.90;;;;;;5066073;28;20175;-79
2021/10/13 09:28:06;;;;;;;11.48;4.47;;;14.50;99.90;;;;;;5075219;28;20218;-86
2021/10/13 09:30:35;;;;;;;7.68;3.33;;;14.60;99.90;;;;;;5073131;28;20232;-79
2021/10/13 09:33:08;;;;;;;3.28;2.28;;;14.70;99.90;;;;;;5071674;28;20170;-77
2021/10/13 09:35:34;;;;;;;4.32;2.53;;;14.80;99.90;;;;;;5071715;28;20241;-77
2021/10/13 09:38:00;;;;;;;10.90;3.22;;;14.70;99.90;;;;;;5071942;28;20608;-78
2021/10/13 09:40:27;;;;;;;4.10;3.05;;;14.90;99.90;;;;;;5072330;28;20556;-78
2021/10/13 09:42:54;;;;;;;6.93;2.75;;;14.90;99.90;;;;;;5072591;28;20341;-78
2021/10/13 09:45:20;;;;;;;6.53;2.88;;;15.10;99.90;;;;;;5072503;28;20533;-77
2021/10/13 09:47:45;;;;;;;4.15;2.35;;;15.20;99.90;;;;;;5071835;28;20213;-77
2021/10/13 09:50:14;;;;;;;6.53;3.20;;;15.30;99.90;;;;;;5072493;28;20190;-79
2021/10/13 09:52:41;;;;;;;12.63;2.35;;;15.30;99.90;;;;;;5072801;28;20192;-77
2021/10/13 09:55:12;;;;;;;3.13;2.47;;;15.20;99.90;;;;;;5075708;28;20166;-78
2021/10/13 09:57:45;;;;;;;6.68;3.55;;;15.00;99.90;;;;;;5075689;28;20256;-81
2021/10/13 10:00:31;;;;;;;6.25;2.78;;;14.90;99.90;;;;;;5075926;28;20167;-78
2021/10/13 10:02:59;;;;;;;5.03;2.78;;;14.70;99.90;;;;;;5075184;28;20619;-77
2021/10/13 10:05:32;;;;;;;6.20;2.55;;;14.70;99.90;;;;;;5075584;28;20170;-77
2021/10/13 10:08:07;;;;;;;5.53;2.42;;;14.70;99.90;;;;;;5075564;28;20700;-77
2021/10/13 10:10:35;;;;;;;5.93;3.08;;;14.80;99.90;;;;;;5075735;28;20227;-78
2021/10/13 10:13:05;;;;;;;4.35;2.50;;;15.10;99.90;;;;;;5075214;28;20174;-77
2021/10/13 10:15:42;;;;;;;6.70;3.25;;;15.20;99.90;;;;;;5075790;28;20170;-78
2021/10/13 10:18:33;;;;;;;9.52;4.05;;;15.20;99.90;;;;;;5075118;28;20197;-77
2021/10/13 10:21:18;;;;;;;5.95;2.50;;;15.30;99.90;;;;;;5075531;28;20186;-77
2021/10/13 10:23:44;;;;;;;4.53;3.17;;;15.50;99.90;;;;;;5075415;28;20165;-78
2021/10/13 10:26:25;;;;;;;2.72;1.80;;;15.40;99.90;;;;;;5075301;28;20657;-77
2021/10/13 10:28:54;;;;;;;6.82;2.10;;;15.10;99.90;;;;;;5074830;28;20247;-78
2021/10/13 10:31:29;;;;;;;4.13;2.08;;;15.00;99.90;;;;;;5074910;28;20190;-77
2021/10/13 10:34:04;;;;;;;5.10;2.67;;;14.80;99.90;;;;;;5074983;28;20170;-78
2021/10/13 10:36:30;;;;;;;4.47;3.00;;;14.70;99.90;;;;;;5074629;28;20170;-78
2021/10/13 10:38:56;;;;;;;6.57;3.28;;;14.70;99.90;;;;;;5075317;28;20177;-78
2021/10/13 10:41:37;;;;;;;10.93;7.13;;;14.70;99.90;;;;;;5073779;28;20163;-78
2021/10/13 10:44:28;;;;;;;11.27;4.35;;;14.80;99.90;;;;;;5075018;28;20209;-77
2021/10/13 10:47:00;;;;;;;3.45;2.83;;;14.90;99.90;;;;;;5075577;28;20206;-78
2021/10/13 10:49:49;;;;;;;7.18;3.53;;;15.10;99.90;;;;;;5076103;28;20215;-80
2021/10/13 10:52:17;;;;;;;7.72;3.25;;;15.00;99.90;;;;;;5073325;28;20534;-77
2021/10/13 10:54:55;;;;;;;8.65;3.17;;;15.10;99.90;;;;;;5074476;28;20249;-78
2021/10/13 10:57:30;;;;;;;4.35;2.58;;;15.20;99.90;;;;;;5072851;28;20197;-78
2021/10/13 10:59:57;;;;;;;6.45;2.50;;;15.20;99.90;;;;;;5074658;28;20203;-78
2021/10/13 11:02:23;;;;;;;6.85;2.08;;;15.30;99.90;;;;;;5076846;28;20497;-85
2021/10/13 11:05:08;;;;;;;7.35;3.00;;;15.20;99.90;;;;;;5075023;28;20185;-86
2021/10/13 11:07:35;;;;;;;10.23;4.35;;;15.40;99.90;;;;;;5074222;28;20206;-77
2021/10/13 11:10:04;;;;;;;10.32;3.63;;;15.40;99.90;;;;;;5073276;28;20185;-78
2021/10/13 11:12:50;;;;;;;15.27;3.25;;;15.50;99.90;;;;;;5072589;28;20166;-79
2021/10/13 11:15:18;;;;;;;17.83;3.28;;;15.50;99.90;;;;;;5074238;28;20220;-78
2021/10/13 11:17:44;;;;;;;6.65;2.10;;;15.50;99.90;;;;;;5074658;28;20292;-78
2021/10/13 11:20:14;;;;;;;7.97;2.40;;;15.70;99.90;;;;;;5074369;28;20163;-78
2021/10/13 11:22:40;;;;;;;9.25;2.95;;;15.80;99.90;;;;;;5074226;28;20497;-78
2021/10/13 11:25:17;;;;;;;4.75;2.72;;;15.80;99.90;;;;;;5072942;28;20179;-84
2021/10/13 11:27:55;;;;;;;17.83;4.22;;;15.90;99.90;;;;;;5073858;28;20202;-88
2021/10/13 11:30:21;;;;;;;14.85;2.97;;;15.80;99.90;;;;;;5073062;28;20643;-77
2021/10/13 11:32:47;;;;;;;15.30;3.22;;;15.70;99.90;;;;;;5074149;28;20220;-77
2021/10/13 11:35:16;;;;;;;8.57;3.08;;;15.40;99.90;;;;;;5073955;28;20170;-77
2021/10/13 11:37:50;;;;;;;19.98;4.00;;;15.50;99.90;;;;;;5073461;28;20518;-77
2021/10/13 11:40:17;;;;;;;22.48;4.32;;;15.70;99.90;;;;;;5073724;28;20167;-78
2021/10/13 11:42:44;;;;;;;10.48;3.80;;;15.70;99.90;;;;;;5072668;28;20176;-78
2021/10/13 11:45:20;;;;;;;11.90;3.25;;;15.80;99.90;;;;;;5074026;28;20181;-77
2021/10/13 11:47:46;;;;;;;6.20;2.60;;;15.90;99.90;;;;;;5073016;28;20201;-81
2021/10/13 11:50:14;;;;;;;6.07;2.40;;;16.10;99.90;;;;;;5074298;28;20170;-78
2021/10/13 11:52:50;;;;;;;8.35;2.55;;;16.00;99.90;;;;;;5073427;28;20215;-81
2021/10/13 11:55:17;;;;;;;7.07;2.00;;;16.00;99.90;;;;;;5073413;28;20241;-78
2021/10/13 11:57:52;;;;;;;6.95;2.50;;;16.00;99.90;;;;;;5074377;28;20515;-78
2021/10/13 12:00:30;;;;;;;5.97;1.88;;;16.10;99.90;;;;;;5073585;28;20165;-79
2021/10/13 12:02:58;;;;;;;6.93;2.90;;;16.30;99.90;;;;;;5073755;28;20177;-78
2021/10/13 12:05:36;;;;;;;7.57;2.17;;;16.30;99.90;;;;;;5073830;28;20155;-78
2021/10/13 12:08:13;;;;;;;2.95;2.15;;;16.20;99.90;;;;;;5073096;28;20296;-78
2021/10/13 12:10:54;;;;;;;14.38;2.17;;;16.50;99.90;;;;;;5072909;28;20474;-78
2021/10/13 12:13:26;;;;;;;8.02;3.60;;;16.50;99.90;;;;;;5072501;28;20584;-77
2021/10/13 12:15:59;;;;;;;13.80;2.83;;;16.60;99.90;;;;;;5072746;28;20216;-79
2021/10/13 12:18:28;;;;;;;5.78;3.15;;;16.50;99.90;;;;;;5072971;28;20236;-79
2021/10/13 12:21:02;;;;;;;3.90;2.35;;;16.60;99.90;;;;;;5071229;28;20163;-78
2021/10/13 12:23:31;;;;;;;22.10;3.38;;;16.80;99.90;;;;;;5074728;28;20162;-88
2021/10/13 12:25:58;;;;;;;5.45;2.80;;;16.70;99.90;;;;;;5076627;28;20178;-85
2021/10/13 12:28:29;;;;;;;8.60;2.05;;;16.60;99.90;;;;;;5076399;28;20210;-84
2021/10/13 12:31:19;;;;;;;6.15;2.60;;;16.50;99.90;;;;;;5077034;28;20186;-86
2021/10/13 12:33:50;;;;;;;3.45;1.80;;;16.70;99.90;;;;;;5067778;28;20257;-88
2021/10/13 12:36:24;;;;;;;4.50;2.05;;;16.60;99.90;;;;;;5077024;28;20211;-79
2021/10/13 12:38:53;;;;;;;3.00;1.77;;;16.50;99.90;;;;;;5073677;28;20188;-78
2021/10/13 12:41:21;;;;;;;6.90;2.22;;;16.50;99.90;;;;;;5073000;28;20246;-78
2021/10/13 12:43:49;;;;;;;9.00;2.63;;;16.50;99.90;;;;;;5072637;28;20258;-79
2021/10/13 12:46:28;;;;;;;10.35;2.38;;;16.30;99.90;;;;;;5073024;28;20250;-79
2021/10/13 12:48:55;;;;;;;5.47;1.98;;;16.30;99.90;;;;;;5071533;28;20193;-79
2021/10/13 12:51:21;;;;;;;5.28;2.00;;;16.40;99.90;;;;;;5075755;28;20246;-80
2021/10/13 12:53:47;;;;;;;9.25;2.10;;;16.50;99.90;;;;;;5078682;28;20198;-86